createdAt,value
2018-07-25T00:00:09.179Z,21.68
2018-07-25T00:01:19.022Z,21.77
2018-07-25T00:02:28.818Z,21.77
2018-07-25T00:03:38.871Z,21.74
2018-07-25T00:04:48.663Z,21.78
2018-07-25T00:05:58.726Z,21.8
2018-07-25T00:07:08.858Z,21.85
2018-07-25T00:08:18.928Z,21.85
2018-07-25T00:09:28.459Z,21.8
2018-07-25T00:10:38.012Z,21.78
2018-07-25T00:11:47.819Z,21.8
2018-07-25T00:12:57.680Z,21.78
2018-07-25T00:14:07.768Z,21.72
2018-07-25T00:15:17.561Z,21.78
2018-07-25T00:16:27.365Z,21.68
2018-07-25T00:17:37.449Z,21.72
2018-07-25T00:18:47.293Z,21.75
2018-07-25T00:19:57.100Z,21.74
2018-07-25T00:21:06.917Z,21.66
2018-07-25T00:22:16.984Z,21.56
2018-07-25T00:23:26.797Z,21.69
2018-07-25T00:24:36.665Z,21.66
2018-07-25T00:25:46.197Z,21.68
2018-07-25T00:26:55.735Z,21.68
2018-07-25T00:28:05.520Z,21.68
2018-07-25T00:29:15.316Z,21.69
2018-07-25T00:30:25.431Z,21.62
2018-07-25T00:31:35.520Z,21.51
2018-07-25T00:32:45.336Z,21.53
2018-07-25T00:33:55.139Z,21.32
2018-07-25T00:35:05.210Z,21.17
2018-07-25T00:36:15.161Z,21.1
2018-07-25T00:37:25.453Z,21.05
2018-07-25T00:38:34.698Z,21.04
2018-07-25T00:39:44.758Z,21.03
2018-07-25T00:40:54.819Z,21.07
2018-07-25T00:42:04.398Z,21.08
2018-07-25T00:43:14.479Z,21.07
2018-07-25T00:44:24.530Z,21.13
2018-07-25T00:45:34.605Z,21.08
2018-07-25T00:46:44.667Z,21.15
2018-07-25T00:47:54.233Z,21.14
2018-07-25T00:49:04.280Z,21.11
2018-07-25T00:50:14.349Z,21.14
2018-07-25T00:51:24.151Z,21.08
2018-07-25T00:52:34.243Z,21.15
2018-07-25T00:53:44.367Z,21.1
2018-07-25T00:54:54.173Z,21.17
2018-07-25T00:56:04.251Z,21.11
2018-07-25T00:57:14.066Z,21.23
2018-07-25T00:58:24.133Z,21.23
2018-07-25T00:59:33.993Z,21.22
2018-07-25T01:00:43.811Z,21.25
2018-07-25T01:01:53.908Z,21.25
2018-07-25T01:03:03.701Z,21.07
2018-07-25T01:04:13.516Z,21.11
2018-07-25T01:05:23.626Z,21.08
2018-07-25T01:06:33.704Z,21.04
2018-07-25T01:07:43.763Z,21.07
2018-07-25T01:08:53.836Z,21.08
2018-07-25T01:10:03.923Z,21.1
2018-07-25T01:11:13.774Z,21.11
2018-07-25T01:12:23.862Z,21.07
2018-07-25T01:13:33.668Z,20.9
2018-07-25T01:14:43.736Z,20.95
2018-07-25T01:15:53.885Z,20.85
2018-07-25T01:17:03.464Z,20.83
2018-07-25T01:18:13.268Z,20.89
2018-07-25T01:19:22.795Z,20.93
2018-07-25T01:20:32.590Z,21.04
2018-07-25T01:21:42.124Z,21.07
2018-07-25T01:22:52.238Z,21.04
2018-07-25T01:24:02.314Z,21.07
2018-07-25T01:25:12.125Z,21.1
2018-07-25T01:26:22.177Z,21.1
2018-07-25T01:27:32.228Z,21.1
2018-07-25T01:28:42.347Z,21.07
2018-07-25T01:29:52.203Z,21.04
2018-07-25T01:31:02.266Z,20.96
2018-07-25T01:32:12.054Z,20.93
2018-07-25T01:33:22.121Z,20.77
2018-07-25T01:34:32.215Z,20.75
2018-07-25T01:35:42.028Z,20.75
2018-07-25T01:36:52.107Z,20.63
2018-07-25T01:38:01.885Z,20.64
2018-07-25T01:39:11.699Z,20.59
2018-07-25T01:40:21.557Z,20.44
2018-07-25T01:41:31.626Z,20.48
2018-07-25T01:42:41.436Z,20.42
2018-07-25T01:43:51.516Z,20.36
2018-07-25T01:45:01.315Z,20.27
2018-07-25T01:46:10.890Z,20.18
2018-07-25T01:47:20.954Z,20.26
2018-07-25T01:48:30.756Z,20.08
2018-07-25T01:49:40.800Z,20.08
2018-07-25T01:50:50.879Z,20.04
2018-07-25T01:52:00.728Z,20.15
2018-07-25T01:53:10.525Z,20.04
2018-07-25T01:54:20.330Z,19.93
2018-07-25T01:55:29.585Z,19.96
2018-07-25T01:56:39.376Z,19.99
2018-07-25T01:57:49.220Z,19.99
2018-07-25T01:58:59.007Z,19.9
2018-07-25T02:00:09.084Z,19.9
2018-07-25T02:01:19.233Z,19.96
2018-07-25T02:02:29.356Z,19.85
2018-07-25T02:03:39.509Z,19.92
2018-07-25T02:04:49.575Z,20
2018-07-25T02:05:59.354Z,20.03
2018-07-25T02:07:09.436Z,19.92
2018-07-25T02:08:19.809Z,19.85
2018-07-25T02:09:30.185Z,19.79
2018-07-25T02:10:40.260Z,19.87
2018-07-25T02:11:50.067Z,19.84
2018-07-25T02:12:59.873Z,19.78
2018-07-25T02:14:09.670Z,19.93
2018-07-25T02:15:19.788Z,19.82
2018-07-25T02:16:29.847Z,19.84
2018-07-25T02:17:39.906Z,19.82
2018-07-25T02:18:49.441Z,19.79
2018-07-25T02:19:59.523Z,19.72
2018-07-25T02:21:09.647Z,19.74
2018-07-25T02:22:19.728Z,19.7
2018-07-25T02:23:29.793Z,19.66
2018-07-25T02:24:39.882Z,19.7
2018-07-25T02:25:49.970Z,19.59
2018-07-25T02:26:59.545Z,19.57
2018-07-25T02:28:09.337Z,19.64
2018-07-25T02:29:19.155Z,19.52
2018-07-25T02:30:28.954Z,19.55
2018-07-25T02:31:39.043Z,19.52
2018-07-25T02:32:49.186Z,19.52
2018-07-25T02:33:59.281Z,19.49
2018-07-25T02:35:09.380Z,19.47
2018-07-25T02:36:18.901Z,19.52
2018-07-25T02:37:28.712Z,19.52
2018-07-25T02:38:38.853Z,19.47
2018-07-25T02:39:48.952Z,19.55
2018-07-25T02:40:58.753Z,19.47
2018-07-25T02:42:08.030Z,19.44
2018-07-25T02:43:18.119Z,19.48
2018-07-25T02:44:27.991Z,19.47
2018-07-25T02:45:37.809Z,19.48
2018-07-25T02:46:47.870Z,19.44
2018-07-25T02:47:57.702Z,19.44
2018-07-25T02:49:07.533Z,19.41
2018-07-25T02:50:17.658Z,19.44
2018-07-25T02:51:27.488Z,19.48
2018-07-25T02:52:37.560Z,19.45
2018-07-25T02:53:47.096Z,19.42
2018-07-25T02:54:57.172Z,19.3
2018-07-25T02:56:06.763Z,19.39
2018-07-25T02:57:16.850Z,19.34
2018-07-25T02:58:26.922Z,19.37
2018-07-25T02:59:36.999Z,19.41
2018-07-25T03:03:36.953Z,19.52
2018-07-25T03:04:46.484Z,19.42
2018-07-25T03:05:56.561Z,19.55
2018-07-25T03:07:06.372Z,19.48
2018-07-25T03:08:16.196Z,19.48
2018-07-25T03:09:26.324Z,19.55
2018-07-25T03:10:36.134Z,19.52
2018-07-25T03:11:46.217Z,19.49
2018-07-25T03:12:56.012Z,19.59
2018-07-25T03:14:05.825Z,19.59
2018-07-25T03:15:15.689Z,19.7
2018-07-25T03:16:25.773Z,19.66
2018-07-25T03:17:35.306Z,19.62
2018-07-25T03:18:45.368Z,19.6
2018-07-25T03:19:55.162Z,19.74
2018-07-25T03:21:05.276Z,19.64
2018-07-25T03:22:15.091Z,19.6
2018-07-25T03:23:25.161Z,19.67
2018-07-25T03:24:35.242Z,19.7
2018-07-25T03:25:45.324Z,19.67
2018-07-25T03:26:55.453Z,19.63
2018-07-25T03:28:05.527Z,19.63
2018-07-25T03:29:15.606Z,19.63
2018-07-25T03:30:25.398Z,19.64
2018-07-25T03:31:35.444Z,19.62
2018-07-25T03:32:45.852Z,19.63
2018-07-25T03:33:55.914Z,19.6
2018-07-25T03:35:05.721Z,19.66
2018-07-25T03:36:15.823Z,19.62
2018-07-25T03:37:25.713Z,19.52
2018-07-25T03:38:35.769Z,19.56
2018-07-25T03:39:45.846Z,19.7
2018-07-25T03:40:55.654Z,19.62
2018-07-25T03:42:05.460Z,19.57
2018-07-25T03:43:15.523Z,19.71
2018-07-25T03:44:25.636Z,19.67
2018-07-25T03:45:35.172Z,19.62
2018-07-25T03:46:44.973Z,19.7
2018-07-25T03:47:55.045Z,19.6
2018-07-25T03:49:04.592Z,19.77
2018-07-25T03:50:14.442Z,19.7
2018-07-25T03:51:24.518Z,19.71
2018-07-25T03:52:34.590Z,19.74
2018-07-25T03:53:44.397Z,19.71
2018-07-25T03:54:54.473Z,19.77
2018-07-25T03:56:04.590Z,19.81
2018-07-25T03:57:14.401Z,19.75
2018-07-25T03:58:24.210Z,19.75
2018-07-25T03:59:34.009Z,19.79
2018-07-25T04:00:44.073Z,19.79
2018-07-25T04:01:54.005Z,19.79
2018-07-25T04:03:03.942Z,19.84
2018-07-25T04:04:14.012Z,19.93
2018-07-25T04:05:24.059Z,19.84
2018-07-25T04:06:34.129Z,19.9
2018-07-25T04:07:43.712Z,19.97
2018-07-25T04:08:53.536Z,19.96
2018-07-25T04:10:03.331Z,19.94
2018-07-25T04:11:13.423Z,19.93
2018-07-25T04:12:23.488Z,19.82
2018-07-25T04:13:33.602Z,19.99
2018-07-25T04:14:43.668Z,19.96
2018-07-25T04:15:53.750Z,19.99
2018-07-25T04:17:03.826Z,20.04
2018-07-25T04:18:13.634Z,20.02
2018-07-25T04:19:23.765Z,20.07
2018-07-25T04:20:33.561Z,20.1
2018-07-25T04:21:43.633Z,20.18
2018-07-25T04:22:53.714Z,20.19
2018-07-25T04:24:03.590Z,20.3
2018-07-25T04:25:13.716Z,20.19
2018-07-25T04:26:23.796Z,20.3
2018-07-25T04:27:33.331Z,20.32
2018-07-25T04:28:43.418Z,20.24
2018-07-25T04:29:52.955Z,20.37
2018-07-25T04:31:02.813Z,20.42
2018-07-25T04:32:12.909Z,20.32
2018-07-25T04:33:22.732Z,20.27
2018-07-25T04:34:32.525Z,20.42
2018-07-25T04:35:42.624Z,20.42
2018-07-25T04:36:52.761Z,20.5
2018-07-25T04:38:02.823Z,20.58
2018-07-25T04:39:12.127Z,20.52
2018-07-25T04:40:21.388Z,20.66
2018-07-25T04:41:31.464Z,20.64
2018-07-25T04:42:41.684Z,20.7
2018-07-25T04:43:51.697Z,20.73
2018-07-25T04:45:01.523Z,20.75
2018-07-25T04:46:11.862Z,20.8
2018-07-25T04:47:22.251Z,20.8
2018-07-25T04:48:32.117Z,20.8
2018-07-25T04:49:42.209Z,20.92
2018-07-25T04:50:51.755Z,20.93
2018-07-25T04:52:01.545Z,20.96
2018-07-25T04:53:11.637Z,21.05
2018-07-25T04:54:21.505Z,21.04
2018-07-25T04:55:31.300Z,21.13
2018-07-25T04:56:41.112Z,21.08
2018-07-25T04:57:50.927Z,21.1
2018-07-25T04:59:00.999Z,21.08
2018-07-25T05:00:10.878Z,21.15
2018-07-25T05:01:20.962Z,21.22
2018-07-25T05:02:30.764Z,21.23
2018-07-25T05:03:40.021Z,21.15
2018-07-25T05:04:49.841Z,21.19
2018-07-25T05:05:59.707Z,21.28
2018-07-25T05:07:09.370Z,21.37
2018-07-25T05:08:19.626Z,21.3
2018-07-25T05:09:29.416Z,21.4
2018-07-25T05:10:38.950Z,21.38
2018-07-25T05:11:48.817Z,21.45
2018-07-25T05:12:58.889Z,21.5
2018-07-25T05:14:08.951Z,21.56
2018-07-25T05:15:18.766Z,21.53
2018-07-25T05:16:28.847Z,21.62
2018-07-25T05:17:38.704Z,21.7
2018-07-25T05:18:48.238Z,21.58
2018-07-25T05:19:58.040Z,21.75
2018-07-25T05:21:08.105Z,21.7
2018-07-25T05:22:17.920Z,21.78
2018-07-25T05:23:28.178Z,21.83
2018-07-25T05:24:38.258Z,21.78
2018-07-25T05:25:48.065Z,21.88
2018-07-25T05:26:57.877Z,21.92
2018-07-25T05:28:07.414Z,21.99
2018-07-25T05:29:17.542Z,22.03
2018-07-25T05:30:27.083Z,22.01
2018-07-25T05:31:37.161Z,22.14
2018-07-25T05:32:46.965Z,22.16
2018-07-25T05:33:56.784Z,22.19
2018-07-25T05:35:06.908Z,22.25
2018-07-25T05:36:16.703Z,22.31
2018-07-25T05:37:26.254Z,22.28
2018-07-25T05:38:36.313Z,22.26
2018-07-25T05:39:46.120Z,22.43
2018-07-25T05:40:56.555Z,22.46
2018-07-25T05:42:06.627Z,22.55
2018-07-25T05:43:16.446Z,22.53
2018-07-25T05:44:26.511Z,22.61
2018-07-25T05:45:36.041Z,22.62
2018-07-25T05:46:45.879Z,22.71
2018-07-25T05:47:55.687Z,22.78
2018-07-25T05:49:05.509Z,22.8
2018-07-25T05:50:15.304Z,22.84
2018-07-25T05:51:25.114Z,22.88
2018-07-25T05:52:34.703Z,22.95
2018-07-25T05:53:44.778Z,22.91
2018-07-25T05:54:54.853Z,22.99
2018-07-25T05:56:04.940Z,23.02
2018-07-25T05:57:14.759Z,22.98
2018-07-25T05:58:24.631Z,22.98
2018-07-25T05:59:34.444Z,22.99
2018-07-25T06:00:44.516Z,23.08
2018-07-25T06:01:54.604Z,23.04
2018-07-25T06:03:05.301Z,23.13
2018-07-25T06:04:15.908Z,23.13
2018-07-25T06:05:26.250Z,23.2
2018-07-25T06:06:36.061Z,23.2
2018-07-25T06:07:45.867Z,23.28
2018-07-25T06:08:55.679Z,23.33
2018-07-25T06:10:05.538Z,23.33
2018-07-25T06:11:15.619Z,23.37
2018-07-25T06:12:25.153Z,23.4
2018-07-25T06:13:34.962Z,23.44
2018-07-25T06:14:45.039Z,23.54
2018-07-25T06:15:55.161Z,23.54
2018-07-25T06:17:05.229Z,23.51
2018-07-25T06:18:15.022Z,23.54
2018-07-25T06:19:24.822Z,23.59
2018-07-25T06:20:34.391Z,23.56
2018-07-25T06:21:44.869Z,23.59
2018-07-25T06:22:54.685Z,23.73
2018-07-25T06:24:04.486Z,23.74
2018-07-25T06:25:14.565Z,23.74
2018-07-25T06:26:24.364Z,23.74
2018-07-25T06:27:34.009Z,23.74
2018-07-25T06:28:43.835Z,23.79
2018-07-25T06:29:53.629Z,23.74
2018-07-25T06:31:03.427Z,23.79
2018-07-25T06:32:12.695Z,23.81
2018-07-25T06:33:22.821Z,23.77
2018-07-25T06:34:32.356Z,23.77
2018-07-25T06:35:42.443Z,23.84
2018-07-25T06:37:08.051Z,23.91
2018-07-25T06:38:18.459Z,23.91
2018-07-25T06:39:28.793Z,23.88
2018-07-25T06:40:38.719Z,23.89
2018-07-25T06:41:48.806Z,23.94
2018-07-25T06:42:58.601Z,24
2018-07-25T06:44:08.476Z,23.96
2018-07-25T06:45:18.283Z,24.06
2018-07-25T06:46:28.097Z,24
2018-07-25T06:47:37.894Z,24.16
2018-07-25T06:48:47.687Z,24.16
2018-07-25T06:49:57.807Z,24.19
2018-07-25T06:51:07.630Z,24.24
2018-07-25T06:52:17.714Z,24.37
2018-07-25T06:53:27.523Z,24.38
2018-07-25T06:54:37.068Z,24.32
2018-07-25T06:55:47.210Z,24.41
2018-07-25T06:56:56.738Z,24.59
2018-07-25T06:58:06.571Z,24.55
2018-07-25T06:59:16.379Z,24.48
2018-07-25T07:00:25.914Z,24.48
2018-07-25T07:01:35.772Z,24.56
2018-07-25T07:02:45.572Z,24.56
2018-07-25T07:03:55.387Z,24.56
2018-07-25T07:05:04.640Z,24.62
2018-07-25T07:06:14.492Z,24.69
2018-07-25T07:07:24.077Z,24.69
2018-07-25T07:08:34.144Z,24.78
2018-07-25T07:09:43.698Z,24.71
2018-07-25T07:10:52.953Z,24.82
2018-07-25T07:12:02.845Z,24.93
2018-07-25T07:13:13.124Z,24.92
2018-07-25T07:14:23.206Z,24.97
2018-07-25T07:15:32.755Z,24.99
2018-07-25T07:16:42.833Z,25.03
2018-07-25T07:17:52.920Z,24.94
2018-07-25T07:19:03.036Z,25.15
2018-07-25T07:20:13.102Z,25.12
2018-07-25T07:21:22.901Z,25.01
2018-07-25T07:22:32.694Z,25.09
2018-07-25T07:23:42.500Z,25.06
2018-07-25T07:24:52.659Z,25.11
2018-07-25T07:26:02.473Z,25.16
2018-07-25T07:27:12.013Z,25.22
2018-07-25T07:28:21.808Z,25.16
2018-07-25T07:29:31.883Z,25.3
2018-07-25T07:30:42.007Z,25.24
2018-07-25T07:31:52.092Z,25.3
2018-07-25T07:33:01.631Z,25.31
2018-07-25T07:34:11.705Z,25.26
2018-07-25T07:35:21.517Z,25.29
2018-07-25T07:36:31.373Z,25.36
2018-07-25T07:37:41.598Z,25.44
2018-07-25T07:38:51.866Z,25.48
2018-07-25T07:40:01.952Z,25.48
2018-07-25T07:41:11.745Z,25.59
2018-07-25T07:42:21.057Z,25.56
2018-07-25T07:43:31.130Z,25.58
2018-07-25T07:44:41.220Z,25.56
2018-07-25T07:45:51.035Z,25.58
2018-07-25T07:47:00.830Z,25.67
2018-07-25T07:48:10.965Z,25.68
2018-07-25T07:49:21.045Z,25.76
2018-07-25T07:50:31.119Z,25.76
2018-07-25T07:51:40.666Z,25.76
2018-07-25T07:52:50.466Z,25.76
2018-07-25T07:54:00.545Z,25.8
2018-07-25T07:55:10.227Z,25.77
2018-07-25T07:56:19.783Z,25.91
2018-07-25T07:57:29.342Z,25.76
2018-07-25T07:58:39.421Z,25.67
2018-07-25T07:59:49.281Z,25.54
2018-07-25T08:00:59.088Z,25.61
2018-07-25T08:02:08.887Z,25.52
2018-07-25T08:03:18.675Z,25.54
2018-07-25T08:04:28.506Z,25.43
2018-07-25T08:05:38.377Z,25.58
2018-07-25T08:06:48.185Z,25.66
2018-07-25T08:07:57.710Z,25.7
2018-07-25T08:09:06.699Z,25.78
2018-07-25T08:10:16.783Z,25.8
2018-07-25T08:11:26.629Z,25.78
2018-07-25T08:12:36.700Z,25.91
2018-07-25T08:13:46.789Z,25.86
2018-07-25T08:14:56.607Z,25.96
2018-07-25T08:16:06.708Z,25.92
2018-07-25T08:17:16.842Z,25.99
2018-07-25T08:18:26.979Z,25.92
2018-07-25T08:19:36.773Z,26.03
2018-07-25T08:20:46.729Z,26.1
2018-07-25T08:21:56.915Z,26.06
2018-07-25T08:23:06.493Z,26.07
2018-07-25T08:24:16.587Z,26.04
2018-07-25T08:25:26.117Z,26.11
2018-07-25T08:26:36.184Z,26.19
2018-07-25T08:27:45.729Z,26.19
2018-07-25T08:28:55.855Z,26.18
2018-07-25T08:30:05.655Z,26.13
2018-07-25T08:31:15.717Z,26.18
2018-07-25T08:32:25.790Z,26.11
2018-07-25T08:33:35.327Z,26.11
2018-07-25T08:34:45.300Z,26.22
2018-07-25T08:35:55.655Z,26.15
2018-07-25T08:37:05.479Z,26.24
2018-07-25T08:38:15.271Z,26.24
2018-07-25T08:39:24.542Z,26.33
2018-07-25T08:40:34.408Z,26.44
2018-07-25T08:41:44.405Z,26.48
2018-07-25T08:42:54.738Z,26.49
2018-07-25T08:44:04.537Z,26.52
2018-07-25T08:45:14.343Z,26.56
2018-07-25T08:46:24.192Z,26.53
2018-07-25T08:47:34.015Z,26.51
2018-07-25T08:48:43.831Z,26.56
2018-07-25T08:49:53.917Z,26.6
2018-07-25T08:51:03.439Z,26.68
2018-07-25T08:52:13.582Z,26.66
2018-07-25T08:53:23.098Z,26.64
2018-07-25T08:54:32.671Z,26.74
2018-07-25T08:55:42.481Z,26.81
2018-07-25T08:56:52.551Z,26.86
2018-07-25T08:58:02.141Z,27.01
2018-07-25T08:59:12.219Z,27
2018-07-25T09:00:22.030Z,27.01
2018-07-25T09:01:31.557Z,26.93
2018-07-25T09:02:41.625Z,27.03
2018-07-25T09:03:51.734Z,27.11
2018-07-25T09:05:01.521Z,27.13
2018-07-25T09:06:10.795Z,27.19
2018-07-25T09:07:20.870Z,27.18
2018-07-25T09:08:31.042Z,27.22
2018-07-25T09:09:41.105Z,27.29
2018-07-25T09:10:51.409Z,27.11
2018-07-25T09:12:01.476Z,27.19
2018-07-25T09:13:11.914Z,27.22
2018-07-25T09:14:21.974Z,27.23
2018-07-25T09:15:32.127Z,27.15
2018-07-25T09:16:42.238Z,27
2018-07-25T09:17:51.845Z,27.01
2018-07-25T09:19:02.090Z,27.11
2018-07-25T09:20:12.420Z,27.11
2018-07-25T09:21:22.264Z,27.28
2018-07-25T09:22:32.072Z,27.22
2018-07-25T09:23:41.873Z,27.33
2018-07-25T09:24:51.944Z,27.3
2018-07-25T09:26:02.035Z,27.34
2018-07-25T09:27:11.371Z,27.52
2018-07-25T09:28:21.811Z,27.5
2018-07-25T09:29:31.650Z,27.48
2018-07-25T09:30:41.781Z,27.45
2018-07-25T09:31:51.932Z,27.6
2018-07-25T09:33:01.827Z,27.67
2018-07-25T09:34:11.299Z,27.83
2018-07-25T09:35:22.022Z,27.85
2018-07-25T09:36:32.157Z,27.82
2018-07-25T09:37:41.993Z,27.85
2018-07-25T09:38:52.246Z,27.88
2018-07-25T09:40:02.455Z,27.9
2018-07-25T09:41:12.590Z,27.82
2018-07-25T09:42:22.509Z,27.75
2018-07-25T09:43:32.093Z,27.81
2018-07-25T09:44:42.051Z,27.82
2018-07-25T09:45:51.983Z,27.81
2018-07-25T09:47:02.231Z,27.73
2018-07-25T09:48:12.139Z,27.81
2018-07-25T09:49:22.299Z,27.76
2018-07-25T09:50:32.296Z,27.81
2018-07-25T09:51:41.952Z,27.9
2018-07-25T09:52:52.180Z,28.01
2018-07-25T09:54:02.236Z,28.06
2018-07-25T09:55:12.517Z,28.06
2018-07-25T09:56:22.143Z,28.23
2018-07-25T09:57:32.327Z,28.3
2018-07-25T09:58:42.528Z,28.27
2018-07-25T09:59:52.771Z,28.22
2018-07-25T10:01:03.201Z,28.19
2018-07-25T10:02:13.292Z,28.25
2018-07-25T10:03:23.183Z,28.37
2018-07-25T10:04:33.027Z,28.46
2018-07-25T10:05:42.907Z,28.43
2018-07-25T10:06:52.789Z,28.5
2018-07-25T10:08:02.786Z,28.49
2018-07-25T10:09:12.927Z,28.4
2018-07-25T10:10:23.133Z,28.35
2018-07-25T10:11:33.326Z,28.53
2018-07-25T10:12:43.481Z,28.64
2018-07-25T10:13:53.154Z,28.57
2018-07-25T10:15:03.122Z,28.7
2018-07-25T10:16:12.908Z,28.7
2018-07-25T10:17:23.146Z,28.77
2018-07-25T10:18:32.737Z,28.83
2018-07-25T10:19:42.960Z,28.86
2018-07-25T10:20:53.097Z,28.78
2018-07-25T10:22:02.813Z,28.9
2018-07-25T10:23:12.731Z,28.72
2018-07-25T10:24:22.908Z,28.72
2018-07-25T10:25:32.867Z,28.78
2018-07-25T10:26:42.742Z,28.9
2018-07-25T10:27:52.605Z,28.87
2018-07-25T10:29:02.823Z,28.78
2018-07-25T10:30:12.770Z,28.82
2018-07-25T10:31:23.073Z,28.77
2018-07-25T10:32:32.915Z,28.84
2018-07-25T10:33:42.490Z,28.9
2018-07-25T10:34:52.352Z,29.09
2018-07-25T10:36:02.540Z,29.25
2018-07-25T10:37:12.514Z,29.27
2018-07-25T10:38:22.373Z,29.2
2018-07-25T10:39:32.221Z,29.24
2018-07-25T10:40:42.092Z,29.22
2018-07-25T10:41:52.229Z,29.31
2018-07-25T10:43:02.429Z,29.37
2018-07-25T10:44:11.981Z,29.62
2018-07-25T10:45:22.116Z,29.55
2018-07-25T10:46:31.963Z,29.61
2018-07-25T10:47:41.830Z,29.73
2018-07-25T10:48:51.630Z,29.61
2018-07-25T10:50:02.209Z,29.58
2018-07-25T10:51:12.044Z,29.58
2018-07-25T10:52:22.167Z,29.69
2018-07-25T10:53:32.041Z,29.68
2018-07-25T10:54:42.209Z,29.58
2018-07-25T10:55:52.502Z,29.46
2018-07-25T10:57:03.510Z,29.4
2018-07-25T10:58:14.298Z,29.57
2018-07-25T10:59:25.525Z,29.65
2018-07-25T11:00:38.134Z,29.59
2018-07-25T11:01:53.074Z,29.59
2018-07-25T11:03:03.803Z,29.58
2018-07-25T11:04:14.214Z,29.65
2018-07-25T11:05:23.800Z,29.55
2018-07-25T11:06:34.129Z,29.71
2018-07-25T11:07:44.260Z,29.76
2018-07-25T11:08:53.851Z,29.65
2018-07-25T11:10:03.962Z,29.74
2018-07-25T11:11:13.247Z,29.73
2018-07-25T11:12:23.125Z,29.76
2018-07-25T11:13:32.713Z,29.84
2018-07-25T11:14:42.836Z,29.94
2018-07-25T11:15:52.987Z,30.01
2018-07-25T11:17:02.566Z,30.02
2018-07-25T11:18:12.194Z,30.1
2018-07-25T11:19:22.077Z,30.02
2018-07-25T11:20:31.658Z,29.77
2018-07-25T11:21:41.520Z,29.76
2018-07-25T11:22:51.422Z,29.68
2018-07-25T11:24:01.125Z,29.77
2018-07-25T11:25:11.232Z,29.73
2018-07-25T11:26:20.785Z,29.94
2018-07-25T11:27:30.645Z,30.03
2018-07-25T11:28:40.762Z,30.17
2018-07-25T11:29:50.331Z,30.26
2018-07-25T11:31:00.129Z,30.31
2018-07-25T11:32:10.189Z,30.39
2018-07-25T11:33:20.005Z,30.32
2018-07-25T11:34:29.548Z,30.38
2018-07-25T11:35:39.679Z,30.4
2018-07-25T11:36:49.760Z,30.77
2018-07-25T11:37:59.588Z,30.74
2018-07-25T11:39:09.501Z,30.74
2018-07-25T11:40:19.572Z,30.62
2018-07-25T11:41:29.156Z,30.49
2018-07-25T11:42:38.692Z,30.51
2018-07-25T11:43:48.713Z,30.78
2018-07-25T11:44:58.928Z,31.23
2018-07-25T11:46:08.466Z,31.82
2018-07-25T11:47:18.377Z,32.29
2018-07-25T11:48:28.464Z,32.3
2018-07-25T11:49:38.280Z,32.11
2018-07-25T11:50:47.824Z,32.54
2018-07-25T11:51:57.625Z,32.94
2018-07-25T11:53:07.231Z,33.4
2018-07-25T11:54:17.309Z,33.48
2018-07-25T11:55:27.709Z,33.76
2018-07-25T11:56:38.182Z,34.22
2018-07-25T11:57:47.982Z,34.37
2018-07-25T11:58:58.112Z,34.79
2018-07-25T12:00:07.933Z,34.69
2018-07-25T12:01:18.433Z,34.51
2018-07-25T12:02:28.348Z,34.44
2018-07-25T12:03:38.447Z,34.55
2018-07-25T12:04:48.578Z,34.55
2018-07-25T12:05:58.812Z,34.33
2018-07-25T12:07:10.489Z,34.04
2018-07-25T12:08:21.411Z,33.89
2018-07-25T12:09:31.769Z,34.13
2018-07-25T12:10:42.667Z,34.28
2018-07-25T12:11:52.573Z,34.16
2018-07-25T12:13:03.054Z,33.72
2018-07-25T12:14:12.880Z,33.76
2018-07-25T12:15:23.048Z,33.22
2018-07-25T12:16:32.671Z,32.67
2018-07-25T12:17:42.813Z,32.93
2018-07-25T12:18:52.950Z,33.36
2018-07-25T12:20:02.815Z,33.2
2018-07-25T12:21:12.743Z,32.83
2018-07-25T12:22:23.252Z,32.42
2018-07-25T12:23:33.184Z,32.2
2018-07-25T12:24:43.383Z,32.05
2018-07-25T12:25:53.283Z,31.74
2018-07-25T12:27:03.673Z,31.66
2018-07-25T12:28:13.946Z,31.35
2018-07-25T12:29:24.124Z,31.17
2018-07-25T12:30:33.729Z,30.98
2018-07-25T12:31:43.317Z,30.95
2018-07-25T12:32:52.939Z,31.55
2018-07-25T12:34:03.163Z,31.63
2018-07-25T12:35:13.361Z,31.26
2018-07-25T12:36:23.229Z,31.02
2018-07-25T12:37:33.368Z,30.81
2018-07-25T12:38:42.972Z,30.88
2018-07-25T12:39:53.200Z,30.92
2018-07-25T12:41:03.107Z,30.8
2018-07-25T12:42:13.306Z,30.71
2018-07-25T12:43:23.214Z,30.59
2018-07-25T12:44:33.114Z,30.58
2018-07-25T12:45:42.781Z,30.48
2018-07-25T12:46:52.676Z,30.36
2018-07-25T12:48:02.872Z,30.08
2018-07-25T12:49:12.746Z,30.02
2018-07-25T12:50:22.655Z,30.02
2018-07-25T12:51:32.895Z,29.99
2018-07-25T12:52:43.046Z,29.96
2018-07-25T12:53:52.983Z,29.99
2018-07-25T12:55:03.333Z,30.49
2018-07-25T12:56:13.255Z,31.11
2018-07-25T12:57:23.172Z,31.44
2018-07-25T12:58:33.081Z,31.41
2018-07-25T12:59:42.406Z,31.64
2018-07-25T13:00:52.276Z,31.64
2018-07-25T13:02:02.345Z,31.45
2018-07-25T13:03:12.803Z,31.41
2018-07-25T13:04:22.688Z,31.44
2018-07-25T13:05:32.845Z,31.33
2018-07-25T13:06:42.482Z,31.6
2018-07-25T13:07:52.357Z,32.15
2018-07-25T13:09:06.090Z,32.81
2018-07-25T13:10:16.532Z,33.16
2018-07-25T13:11:26.426Z,33.77
2018-07-25T13:12:36.358Z,34.21
2018-07-25T13:13:46.248Z,34.18
2018-07-25T13:14:56.187Z,33.79
2018-07-25T13:16:06.489Z,33.39
2018-07-25T13:17:16.069Z,33.28
2018-07-25T13:18:25.696Z,33.29
2018-07-25T13:19:35.886Z,33.38
2018-07-25T13:20:46.107Z,33.31
2018-07-25T13:21:55.732Z,32.85
2018-07-25T13:23:06.166Z,32.49
2018-07-25T13:24:16.552Z,32.23
2018-07-25T13:25:26.758Z,32.08
2018-07-25T13:26:36.668Z,31.89
2018-07-25T13:27:46.541Z,31.85
2018-07-25T13:28:57.247Z,31.89
2018-07-25T13:30:07.181Z,32.11
2018-07-25T13:31:17.390Z,32.11
2018-07-25T13:32:27.615Z,31.93
2018-07-25T13:33:37.509Z,31.81
2018-07-25T13:34:47.378Z,31.92
2018-07-25T13:35:57.488Z,32
2018-07-25T13:37:07.794Z,31.95
2018-07-25T13:38:17.895Z,31.97
2018-07-25T13:39:28.077Z,32.11
2018-07-25T13:40:37.972Z,31.97
2018-07-25T13:41:47.284Z,31.89
2018-07-25T13:42:57.188Z,31.74
2018-07-25T13:44:07.300Z,31.73
2018-07-25T13:45:17.506Z,31.59
2018-07-25T13:46:28.629Z,31.45
2018-07-25T13:47:39.193Z,31.37
2018-07-25T13:48:50.459Z,31.32
2018-07-25T13:50:02.880Z,31.25
2018-07-25T13:51:13.992Z,31.29
2018-07-25T13:52:25.737Z,31.23
2018-07-25T13:53:36.770Z,31.26
2018-07-25T13:54:47.960Z,31.26
2018-07-25T13:55:58.727Z,31.36
2018-07-25T13:57:08.899Z,31.2
2018-07-25T13:58:18.905Z,31.32
2018-07-25T13:59:28.850Z,31.41
2018-07-25T14:00:39.026Z,31.42
2018-07-25T14:01:49.224Z,31.45
2018-07-25T14:02:59.104Z,31.44
2018-07-25T14:04:08.671Z,31.37
2018-07-25T14:05:19.175Z,31.32
2018-07-25T14:06:29.561Z,31.14
2018-07-25T14:07:39.468Z,31
2018-07-25T14:08:49.645Z,31.13
2018-07-25T14:09:59.497Z,31.07
2018-07-25T14:11:09.095Z,30.95
2018-07-25T14:12:19.556Z,30.88
2018-07-25T14:13:29.230Z,30.78
2018-07-25T14:14:39.377Z,30.76
2018-07-25T14:15:49.557Z,30.8
2018-07-25T14:16:59.743Z,30.76
2018-07-25T14:18:09.909Z,30.49
2018-07-25T14:19:20.086Z,30.52
2018-07-25T14:20:29.685Z,30.48
2018-07-25T14:21:39.593Z,30.74
2018-07-25T14:22:49.761Z,31.41
2018-07-25T14:24:00.311Z,31.64
2018-07-25T14:25:11.286Z,32.11
2018-07-25T14:26:21.507Z,32.6
2018-07-25T14:27:31.701Z,32.72
2018-07-25T14:28:42.125Z,32.73
2018-07-25T14:29:52.322Z,32.59
2018-07-25T14:31:02.274Z,32.76
2018-07-25T14:32:11.600Z,32.56
2018-07-25T14:33:21.469Z,32.53
2018-07-25T14:34:31.066Z,32.54
2018-07-25T14:35:41.270Z,32.45
2018-07-25T14:36:51.519Z,32.71
2018-07-25T14:38:01.687Z,33.26
2018-07-25T14:39:11.288Z,33.53
2018-07-25T14:40:21.890Z,33.77
2018-07-25T14:41:32.637Z,34.11
2018-07-25T14:42:42.310Z,34.48
2018-07-25T14:43:52.204Z,34.55
2018-07-25T14:45:02.126Z,34.82
2018-07-25T14:46:11.736Z,35.25
2018-07-25T14:47:22.460Z,35.35
2018-07-25T14:48:32.757Z,35
2018-07-25T14:49:42.922Z,35.13
2018-07-25T14:50:52.841Z,35.04
2018-07-25T14:52:02.995Z,35.25
2018-07-25T14:53:12.616Z,35.68
2018-07-25T14:54:23.135Z,36.38
2018-07-25T14:55:32.895Z,36.63
2018-07-25T14:56:43.115Z,36.65
2018-07-25T14:57:53.319Z,36.72
2018-07-25T14:59:03.516Z,36.62
2018-07-25T15:00:13.785Z,36.2
2018-07-25T15:01:23.979Z,36.26
2018-07-25T15:02:34.390Z,36.13
2018-07-25T15:03:44.728Z,35.82
2018-07-25T15:04:54.947Z,36.18
2018-07-25T15:06:04.917Z,36.5
2018-07-25T15:07:14.802Z,36.62